createdAt,value
2019-03-28T00:01:59.541Z,18.17
2019-03-28T00:04:29.663Z,18.97
2019-03-28T00:06:59.740Z,18.00
2019-03-28T00:09:29.981Z,19.03
2019-03-28T00:12:00.061Z,17.57
2019-03-28T00:14:30.071Z,18.20
2019-03-28T00:17:00.151Z,19.10
2019-03-28T00:19:30.244Z,18.50
2019-03-28T00:22:00.834Z,19.33
2019-03-28T00:24:45.133Z,19.00
2019-03-28T00:27:21.943Z,20.17
2019-03-28T00:29:52.154Z,18.87
2019-03-28T00:32:22.439Z,20.47
2019-03-28T00:34:52.505Z,19.97
2019-03-28T00:37:22.732Z,21.30
2019-03-28T00:39:53.047Z,19.40
2019-03-28T00:42:23.374Z,19.70
2019-03-28T00:44:53.689Z,20.50
2019-03-28T00:47:23.794Z,20.80
2019-03-28T00:49:53.822Z,20.93
2019-03-28T00:52:23.954Z,20.67
2019-03-28T00:54:54.052Z,20.57
2019-03-28T00:57:24.091Z,20.33
2019-03-28T00:59:54.173Z,21.50
2019-03-28T01:02:24.412Z,22.10
2019-03-28T01:04:54.713Z,21.40
2019-03-28T01:07:24.807Z,22.43
2019-03-28T01:09:55.299Z,21.30
2019-03-28T01:12:27.368Z,22.17
2019-03-28T01:14:58.142Z,22.10
2019-03-28T01:17:28.508Z,21.00
2019-03-28T01:19:58.691Z,22.60
2019-03-28T01:22:29.295Z,22.67
2019-03-28T01:24:59.609Z,21.90
2019-03-28T01:27:30.174Z,22.83
2019-03-28T01:30:00.379Z,22.93
2019-03-28T01:32:30.407Z,23.37
2019-03-28T01:35:00.571Z,22.10
2019-03-28T01:37:30.951Z,22.47
2019-03-28T01:40:01.329Z,22.20
2019-03-28T01:42:31.487Z,21.83
2019-03-28T01:45:01.631Z,22.80
2019-03-28T01:47:31.800Z,23.40
2019-03-28T01:50:01.920Z,22.80
2019-03-28T01:52:32.214Z,21.73
2019-03-28T01:55:02.537Z,23.33
2019-03-28T01:57:32.849Z,21.73
2019-03-28T02:00:03.043Z,21.87
2019-03-28T02:02:33.129Z,21.20
2019-03-28T02:05:03.202Z,21.80
2019-03-28T02:07:33.282Z,22.60
2019-03-28T02:10:03.440Z,20.53
2019-03-28T02:12:33.512Z,22.13
2019-03-28T02:15:04.208Z,19.67
2019-03-28T02:17:34.764Z,22.77
2019-03-28T02:20:05.125Z,22.67
2019-03-28T02:22:35.205Z,22.37
2019-03-28T02:25:05.531Z,23.17
2019-03-28T02:27:35.685Z,23.97
2019-03-28T02:30:08.478Z,21.53
2019-03-28T02:32:38.579Z,22.73
2019-03-28T02:35:09.557Z,22.07
2019-03-28T02:37:39.868Z,23.50
2019-03-28T02:40:09.944Z,23.37
2019-03-28T02:42:40.041Z,21.63
2019-03-28T02:45:10.253Z,22.97
2019-03-28T02:47:40.384Z,24.07
2019-03-28T02:50:11.444Z,23.03
2019-03-28T02:52:41.931Z,22.13
2019-03-28T02:55:12.020Z,22.90
2019-03-28T02:57:43.803Z,21.70
2019-03-28T03:00:14.479Z,24.07
2019-03-28T03:02:44.695Z,23.70
2019-03-28T03:05:15.036Z,23.93
2019-03-28T03:07:45.381Z,23.50
2019-03-28T03:10:15.505Z,23.60
2019-03-28T03:12:45.576Z,24.37
2019-03-28T03:15:15.923Z,25.07
2019-03-28T03:17:46.091Z,23.43
2019-03-28T03:20:16.257Z,22.73
2019-03-28T03:22:46.342Z,23.23
2019-03-28T03:25:16.534Z,23.67
2019-03-28T03:27:57.496Z,23.83
2019-03-28T03:30:18.351Z,24.20
2019-03-28T03:32:48.585Z,23.60
2019-03-28T03:35:18.654Z,24.30
2019-03-28T03:37:48.931Z,23.63
2019-03-28T03:40:19.263Z,24.63
2019-03-28T03:42:49.677Z,25.90
2019-03-28T03:45:20.119Z,25.63
2019-03-28T03:47:50.411Z,23.23
2019-03-28T03:50:28.490Z,23.43
2019-03-28T03:52:58.641Z,25.23
2019-03-28T03:55:28.720Z,23.60
2019-03-28T03:58:14.451Z,24.20
2019-03-28T04:00:35.180Z,25.33
2019-03-28T04:03:05.296Z,24.53
2019-03-28T04:05:35.355Z,24.03
2019-03-28T04:08:05.475Z,24.70
2019-03-28T04:10:35.517Z,24.33
2019-03-28T04:13:05.612Z,24.00
2019-03-28T04:15:35.662Z,25.93
2019-03-28T04:18:05.761Z,24.57
2019-03-28T04:20:36.166Z,24.00
2019-03-28T04:23:08.382Z,24.43
2019-03-28T04:25:39.759Z,24.63
2019-03-28T04:28:10.225Z,22.57
2019-03-28T04:30:40.300Z,24.33
2019-03-28T04:33:10.471Z,24.63
2019-03-28T04:35:40.545Z,23.20
2019-03-28T04:38:10.750Z,23.30
2019-03-28T04:40:40.797Z,24.63
2019-03-28T04:43:11.083Z,24.40
2019-03-28T04:45:41.132Z,23.27
2019-03-28T04:48:11.226Z,25.40
2019-03-28T04:50:41.290Z,25.47
2019-03-28T04:53:11.585Z,25.30
2019-03-28T04:55:42.171Z,24.83
2019-03-28T04:58:12.705Z,24.77
2019-03-28T05:00:42.814Z,25.13
2019-03-28T05:03:13.312Z,25.47
2019-03-28T05:05:43.610Z,26.13
2019-03-28T05:08:13.717Z,25.63
2019-03-28T05:10:44.094Z,25.80
2019-03-28T05:13:14.209Z,26.00
2019-03-28T05:15:44.335Z,25.20
2019-03-28T05:18:14.429Z,26.30
2019-03-28T05:20:44.583Z,25.73
2019-03-28T05:23:14.885Z,24.77
2019-03-28T05:25:45.148Z,26.53
2019-03-28T05:28:15.273Z,23.60
2019-03-28T05:30:45.511Z,23.97
2019-03-28T05:33:15.627Z,24.57
2019-03-28T05:35:45.754Z,23.57
2019-03-28T05:38:15.911Z,24.07
2019-03-28T05:40:46.138Z,25.67
2019-03-28T05:43:16.305Z,25.20
2019-03-28T05:45:47.997Z,25.53
2019-03-28T05:48:18.330Z,24.77
2019-03-28T05:50:48.520Z,24.80
2019-03-28T05:53:18.714Z,25.70
2019-03-28T05:55:48.898Z,26.07
2019-03-28T05:58:19.100Z,25.50
2019-03-28T06:00:51.331Z,25.70
2019-03-28T06:03:21.290Z,24.87
2019-03-28T06:05:52.229Z,24.40
2019-03-28T06:08:22.393Z,25.63
2019-03-28T06:10:52.662Z,24.20
2019-03-28T06:13:22.817Z,25.57
2019-03-28T06:15:53.828Z,23.83
2019-03-28T06:18:23.978Z,24.13
2019-03-28T06:20:54.237Z,24.40
2019-03-28T06:23:24.562Z,25.07
2019-03-28T06:25:54.902Z,25.17
2019-03-28T06:28:25.405Z,25.57
2019-03-28T06:30:56.080Z,25.03
2019-03-28T06:33:26.451Z,25.00
2019-03-28T06:35:56.736Z,25.23
2019-03-28T06:38:27.011Z,23.60
2019-03-28T06:40:57.377Z,25.80
2019-03-28T06:43:27.831Z,25.67
2019-03-28T06:45:58.588Z,23.30
2019-03-28T06:48:28.750Z,26.03
2019-03-28T06:50:58.963Z,24.23
2019-03-28T06:53:29.105Z,24.87
2019-03-28T06:55:59.487Z,25.67
2019-03-28T06:58:29.758Z,24.67
2019-03-28T07:00:59.952Z,23.37
2019-03-28T07:03:30.225Z,23.83
2019-03-28T07:06:00.507Z,24.83
2019-03-28T07:08:30.706Z,24.87
2019-03-28T07:11:00.887Z,24.00
2019-03-28T07:13:31.466Z,25.10
2019-03-28T07:16:01.650Z,25.23
2019-03-28T07:18:31.823Z,25.13
2019-03-28T07:21:02.300Z,24.80
2019-03-28T07:23:33.107Z,26.50
2019-03-28T07:26:06.219Z,26.53
2019-03-28T07:28:36.723Z,24.97
2019-03-28T07:31:07.440Z,25.43
2019-03-28T07:33:38.201Z,25.97
2019-03-28T07:36:09.365Z,25.03
2019-03-28T07:38:40.390Z,26.67
2019-03-28T07:41:11.202Z,25.20
2019-03-28T07:43:42.213Z,24.77
2019-03-28T07:46:13.002Z,26.10
2019-03-28T07:48:44.060Z,26.43
2019-03-28T07:51:14.358Z,25.67
2019-03-28T07:53:44.561Z,26.43
2019-03-28T07:56:14.710Z,25.77
2019-03-28T07:58:45.046Z,25.83
2019-03-28T08:01:17.893Z,25.63
2019-03-28T08:03:47.573Z,25.47
2019-03-28T08:06:17.797Z,26.87
2019-03-28T08:08:48.046Z,25.27
2019-03-28T08:11:18.418Z,25.30
2019-03-28T08:13:48.639Z,25.43
2019-03-28T08:16:18.981Z,25.80
2019-03-28T08:18:49.253Z,26.43
2019-03-28T08:21:19.440Z,26.07
2019-03-28T08:23:49.786Z,25.87
2019-03-28T08:26:20.083Z,26.83
2019-03-28T08:28:50.319Z,26.00
2019-03-28T08:31:20.816Z,26.07
2019-03-28T08:33:51.041Z,26.70
2019-03-28T08:36:22.697Z,26.93
2019-03-28T08:38:54.020Z,26.40
2019-03-28T08:41:24.190Z,26.93
2019-03-28T08:43:54.455Z,27.03
2019-03-28T08:46:24.707Z,27.47
2019-03-28T08:48:54.915Z,26.03
2019-03-28T08:51:27.363Z,26.20
2019-03-28T08:53:57.211Z,27.27
2019-03-28T08:56:27.495Z,26.20
2019-03-28T08:58:57.677Z,27.70
2019-03-28T09:01:28.053Z,26.67
2019-03-28T09:03:58.247Z,25.00
2019-03-28T09:06:28.546Z,26.80
2019-03-28T09:08:58.941Z,26.13
2019-03-28T09:11:29.162Z,27.90
2019-03-28T09:13:59.413Z,27.37
2019-03-28T09:16:29.637Z,29.30
2019-03-28T09:18:59.872Z,28.37
2019-03-28T09:21:30.041Z,27.03
2019-03-28T09:24:00.187Z,28.47
2019-03-28T09:26:30.329Z,27.93
2019-03-28T09:29:00.572Z,29.67
2019-03-28T09:31:30.900Z,29.60
2019-03-28T09:34:01.224Z,28.67
2019-03-28T09:36:31.571Z,29.50
2019-03-28T09:39:01.991Z,30.43
2019-03-28T09:41:32.863Z,28.17
2019-03-28T09:44:03.019Z,30.30
2019-03-28T09:46:33.176Z,32.97
2019-03-28T09:49:03.418Z,31.17
2019-03-28T09:51:35.355Z,31.20
2019-03-28T09:54:05.395Z,31.90
2019-03-28T09:56:35.667Z,31.83
2019-03-28T09:59:05.955Z,30.60
2019-03-28T10:01:36.144Z,30.43
2019-03-28T10:04:06.686Z,31.33
2019-03-28T10:06:40.112Z,30.93
2019-03-28T10:09:10.519Z,32.70
2019-03-28T10:11:41.035Z,31.70
2019-03-28T10:14:13.040Z,33.43
2019-03-28T10:16:43.484Z,34.67
2019-03-28T10:19:13.788Z,36.47
2019-03-28T10:21:44.604Z,34.97
2019-03-28T10:24:16.721Z,35.27
2019-03-28T10:26:46.980Z,37.43
2019-03-28T10:29:17.229Z,36.90
2019-03-28T10:31:47.589Z,35.20
2019-03-28T10:34:18.036Z,36.80
2019-03-28T10:36:48.214Z,36.70
2019-03-28T10:39:18.618Z,37.57
2019-03-28T10:41:48.837Z,36.93
2019-03-28T10:44:19.197Z,34.40
2019-03-28T10:46:55.412Z,37.67
2019-03-28T10:49:25.725Z,36.27
2019-03-28T10:51:55.950Z,36.37
2019-03-28T10:54:26.185Z,35.97
2019-03-28T10:56:58.045Z,36.07
2019-03-28T10:59:28.459Z,36.37
2019-03-28T11:01:58.738Z,34.97
2019-03-28T11:04:29.114Z,33.53
2019-03-28T11:06:59.514Z,31.20
2019-03-28T11:09:29.792Z,32.00
2019-03-28T11:12:00.264Z,29.73
2019-03-28T11:14:30.501Z,26.93
2019-03-28T11:17:00.961Z,24.53
2019-03-28T11:19:31.241Z,28.40
2019-03-28T11:22:02.040Z,29.87
2019-03-28T11:24:32.534Z,29.17
2019-03-28T11:27:02.802Z,28.70
2019-03-28T11:29:33.758Z,24.70
2019-03-28T11:32:04.342Z,22.00
2019-03-28T11:34:34.606Z,22.20
2019-03-28T11:37:05.064Z,20.50
2019-03-28T11:39:35.469Z,19.23
2019-03-28T11:42:05.718Z,21.70
2019-03-28T11:44:35.842Z,20.17
2019-03-28T11:47:06.148Z,13.80
2019-03-28T11:49:36.389Z,8.03
2019-03-28T11:52:06.806Z,8.67
2019-03-28T11:54:38.104Z,9.47
2019-03-28T11:57:08.538Z,12.60
2019-03-28T11:59:38.767Z,12.00
2019-03-28T12:02:19.817Z,11.57
2019-03-28T12:04:42.721Z,5.20
2019-03-28T12:07:12.946Z,6.63
2019-03-28T12:09:43.279Z,9.63
2019-03-28T12:12:13.566Z,8.27
2019-03-28T12:14:43.944Z,10.87
2019-03-28T12:17:14.204Z,13.70
2019-03-28T12:19:44.706Z,12.30
2019-03-28T12:22:15.360Z,13.70
2019-03-28T12:24:45.914Z,14.90
2019-03-28T12:27:16.126Z,15.33
2019-03-28T12:29:46.366Z,16.43
2019-03-28T12:32:16.762Z,15.73
2019-03-28T12:34:47.214Z,15.80
2019-03-28T12:37:17.714Z,14.30
2019-03-28T12:39:47.978Z,14.97
2019-03-28T12:42:18.502Z,15.37
2019-03-28T12:44:56.969Z,16.40
2019-03-28T12:47:20.840Z,14.77
2019-03-28T12:49:51.180Z,15.47
2019-03-28T12:52:21.653Z,15.43
2019-03-28T12:54:52.020Z,16.90
2019-03-28T12:57:22.297Z,17.00
2019-03-28T12:59:53.733Z,19.80
2019-03-28T13:02:30.200Z,17.63
2019-03-28T13:04:56.931Z,17.97
2019-03-28T13:07:27.580Z,17.77
2019-03-28T13:09:58.251Z,18.17
2019-03-28T13:12:28.968Z,18.17
2019-03-28T13:14:59.478Z,18.40
2019-03-28T13:17:30.519Z,18.03
2019-03-28T13:20:01.680Z,18.60
2019-03-28T13:22:35.530Z,19.73
2019-03-28T13:25:08.017Z,21.00
2019-03-28T13:27:38.959Z,20.73
2019-03-28T13:30:11.088Z,21.07
2019-03-28T13:32:42.654Z,20.13
2019-03-28T13:35:14.177Z,21.27
2019-03-28T13:37:44.451Z,19.97
2019-03-28T13:40:14.961Z,19.93
2019-03-28T13:42:45.186Z,20.43
2019-03-28T13:45:16.512Z,21.27
2019-03-28T13:47:46.731Z,22.13
2019-03-28T13:50:17.661Z,20.73
2019-03-28T13:52:47.871Z,20.97
2019-03-28T13:55:18.642Z,21.17
2019-03-28T13:57:52.088Z,21.43
2019-03-28T14:00:31.231Z,20.53
2019-03-28T14:03:01.918Z,21.30
2019-03-28T14:05:32.261Z,21.67
2019-03-28T14:08:02.594Z,20.83
2019-03-28T14:10:32.970Z,20.37
2019-03-28T14:13:03.241Z,21.03
2019-03-28T14:15:33.499Z,21.37
2019-03-28T14:18:03.732Z,22.33
2019-03-28T14:20:34.236Z,20.50
2019-03-28T14:23:04.450Z,21.00
2019-03-28T14:25:34.699Z,20.40
2019-03-28T14:28:04.964Z,20.30
2019-03-28T14:30:35.427Z,20.23
2019-03-28T14:33:11.487Z,22.23
2019-03-28T14:35:37.826Z,20.60
2019-03-28T14:38:08.203Z,19.53
2019-03-28T14:40:38.569Z,21.93
2019-03-28T14:43:10.672Z,20.00
2019-03-28T14:45:41.235Z,20.70
2019-03-28T14:48:11.536Z,21.80
2019-03-28T14:50:42.155Z,21.57
2019-03-28T14:53:13.224Z,22.57
2019-03-28T14:55:43.969Z,21.50
2019-03-28T14:58:14.319Z,23.23
2019-03-28T15:00:49.139Z,22.13
2019-03-28T15:03:26.446Z,23.33
2019-03-28T15:05:52.222Z,21.47
2019-03-28T15:08:22.706Z,22.13
2019-03-28T15:10:53.227Z,22.97
2019-03-28T15:13:23.688Z,23.27
2019-03-28T15:15:54.257Z,23.77
2019-03-28T15:18:24.618Z,22.63
2019-03-28T15:20:55.063Z,21.53
2019-03-28T15:23:25.666Z,20.23
2019-03-28T15:25:55.958Z,20.73
2019-03-28T15:28:26.245Z,20.57
2019-03-28T15:30:56.758Z,19.27
2019-03-28T15:33:38.672Z,19.77
2019-03-28T15:35:59.403Z,19.00
2019-03-28T15:38:31.429Z,20.63
2019-03-28T15:41:03.457Z,18.50
2019-03-28T15:43:34.083Z,18.17
2019-03-28T15:46:04.549Z,18.57
2019-03-28T15:48:35.577Z,17.77
2019-03-28T15:51:07.852Z,18.07
2019-03-28T15:53:38.186Z,18.60
2019-03-28T15:56:08.852Z,18.37
2019-03-28T15:58:39.460Z,17.60
2019-03-28T16:01:10.522Z,18.30
2019-03-28T16:03:52.373Z,16.90
2019-03-28T16:06:13.090Z,20.00
2019-03-28T16:08:43.494Z,19.60
2019-03-28T16:11:14.622Z,18.07
2019-03-28T16:13:45.433Z,18.10
2019-03-28T16:16:16.012Z,17.03
2019-03-28T16:18:46.747Z,18.23
2019-03-28T16:21:17.253Z,18.67
2019-03-28T16:23:47.652Z,18.17
2019-03-28T16:26:18.390Z,19.30
2019-03-28T16:28:49.132Z,18.93
2019-03-28T16:31:19.671Z,18.40
2019-03-28T16:33:50.311Z,18.93
2019-03-28T16:36:22.979Z,18.77
2019-03-28T16:38:56.133Z,18.47
2019-03-28T16:41:26.844Z,16.63
2019-03-28T16:43:57.421Z,17.60
2019-03-28T16:46:28.153Z,17.13
2019-03-28T16:48:58.895Z,16.90
2019-03-28T16:51:29.622Z,18.03
2019-03-28T16:54:00.258Z,15.93
2019-03-28T16:56:31.564Z,16.00
2019-03-28T16:59:02.213Z,16.93
2019-03-28T17:01:33.087Z,16.50
2019-03-28T17:04:03.732Z,16.37
2019-03-28T17:06:34.527Z,15.17
2019-03-28T17:09:06.855Z,16.07
2019-03-28T17:11:37.578Z,16.10
2019-03-28T17:14:08.390Z,16.70
2019-03-28T17:16:38.981Z,15.83
2019-03-28T17:19:09.481Z,17.50
2019-03-28T17:21:40.055Z,16.53
2019-03-28T17:24:10.779Z,17.13
2019-03-28T17:26:41.515Z,18.17
2019-03-28T17:29:12.100Z,17.03
2019-03-28T17:31:42.823Z,18.80
2019-03-28T17:34:13.636Z,18.43
2019-03-28T17:36:44.217Z,18.70
2019-03-28T17:39:15.494Z,18.17
2019-03-28T17:41:46.164Z,18.53
2019-03-28T17:44:17.120Z,17.47
2019-03-28T17:46:47.772Z,17.23
2019-03-28T17:49:18.466Z,18.83
2019-03-28T17:51:50.417Z,17.23
2019-03-28T17:54:23.047Z,18.50
2019-03-28T17:56:53.609Z,18.93
2019-03-28T17:59:24.373Z,18.47
2019-03-28T18:01:55.116Z,18.00
2019-03-28T18:04:25.811Z,18.67
2019-03-28T18:06:56.622Z,18.67
2019-03-28T18:09:27.536Z,19.17
2019-03-28T18:11:58.266Z,18.57
2019-03-28T18:14:28.910Z,17.83
2019-03-28T18:16:59.836Z,19.30
2019-03-28T18:19:30.650Z,18.80
2019-03-28T18:22:03.823Z,19.43
2019-03-28T18:24:33.722Z,19.83
2019-03-28T18:27:04.447Z,18.93
2019-03-28T18:29:36.013Z,19.90
2019-03-28T18:32:07.540Z,20.43
2019-03-28T18:34:38.126Z,21.37
2019-03-28T18:37:08.819Z,20.20
2019-03-28T18:39:42.804Z,20.07
2019-03-28T18:42:15.182Z,20.93
2019-03-28T18:44:54.169Z,21.03
2019-03-28T18:47:29.578Z,20.80
2019-03-28T18:50:06.348Z,21.83
2019-03-28T18:52:37.101Z,21.90
2019-03-28T18:55:09.731Z,21.23
2019-03-28T18:57:42.151Z,22.30
2019-03-28T19:00:13.426Z,21.70
2019-03-28T19:02:44.002Z,21.47
2019-03-28T19:05:19.993Z,22.03
2019-03-28T19:07:47.348Z,21.47
2019-03-28T19:10:17.973Z,21.77
2019-03-28T19:12:48.542Z,22.10
2019-03-28T19:15:19.206Z,23.10
2019-03-28T19:17:49.883Z,21.40
2019-03-28T19:20:20.656Z,23.13
2019-03-28T19:22:51.264Z,21.10
2019-03-28T19:25:22.400Z,21.40
2019-03-28T19:27:52.952Z,21.47
2019-03-28T19:30:32.677Z,22.77
2019-03-28T19:33:06.610Z,23.57
2019-03-28T19:35:36.948Z,22.73
2019-03-28T19:38:09.066Z,23.67
2019-03-28T19:40:39.907Z,22.87
2019-03-28T19:43:20.458Z,21.77
2019-03-28T19:45:44.199Z,22.73
2019-03-28T19:48:15.240Z,23.80
2019-03-28T19:50:45.982Z,23.33
2019-03-28T19:53:17.803Z,23.73
2019-03-28T19:55:48.870Z,23.37
2019-03-28T19:58:19.424Z,23.47
2019-03-28T20:00:50.232Z,23.63
2019-03-28T20:03:23.239Z,23.27
2019-03-28T20:05:53.375Z,23.17
2019-03-28T20:08:26.151Z,24.43
2019-03-28T20:10:56.283Z,22.87
2019-03-28T20:13:26.708Z,21.90
2019-03-28T20:15:57.698Z,23.13
2019-03-28T20:18:28.518Z,23.97
2019-03-28T20:20:59.080Z,23.50
2019-03-28T20:23:29.726Z,23.50
2019-03-28T20:26:02.063Z,22.77
2019-03-28T20:28:34.027Z,23.50
2019-03-28T20:31:05.305Z,23.67
2019-03-28T20:33:36.089Z,23.70
2019-03-28T20:36:35.558Z,22.30
2019-03-28T20:38:39.068Z,23.83
2019-03-28T20:41:09.611Z,24.93
2019-03-28T20:43:42.783Z,21.93
2019-03-28T20:46:13.236Z,22.73
2019-03-28T20:48:43.809Z,24.57
2019-03-28T20:51:15.134Z,24.40
2019-03-28T20:53:45.569Z,23.77
2019-03-28T20:56:16.204Z,24.30
2019-03-28T20:58:46.735Z,24.87
2019-03-28T21:01:17.326Z,24.10
2019-03-28T21:03:49.597Z,25.13
2019-03-28T21:06:21.256Z,25.60
2019-03-28T21:08:51.728Z,22.73
2019-03-28T21:11:22.235Z,25.37
2019-03-28T21:13:52.732Z,24.83
2019-03-28T21:16:23.380Z,25.73
2019-03-28T21:18:53.787Z,25.43
2019-03-28T21:21:24.350Z,25.03
2019-03-28T21:23:55.469Z,24.63
2019-03-28T21:26:25.980Z,25.73
2019-03-28T21:28:56.410Z,27.37
2019-03-28T21:31:26.965Z,25.90
2019-03-28T21:33:57.325Z,27.40
2019-03-28T21:36:30.165Z,25.87
2019-03-28T21:39:00.073Z,28.27
2019-03-28T21:41:30.507Z,27.63
2019-03-28T21:44:01.069Z,27.10
2019-03-28T21:46:32.789Z,27.03
2019-03-28T21:49:03.277Z,27.50
2019-03-28T21:51:33.662Z,27.50
2019-03-28T21:54:05.154Z,27.87
2019-03-28T21:56:35.835Z,27.63
2019-03-28T21:59:06.105Z,26.97
2019-03-28T22:01:36.559Z,28.77
2019-03-28T22:04:06.822Z,28.90
2019-03-28T22:06:42.984Z,26.73
2019-03-28T22:09:09.001Z,28.67
2019-03-28T22:11:39.031Z,27.73
2019-03-28T22:14:09.128Z,27.17
2019-03-28T22:16:39.188Z,27.80
2019-03-28T22:19:09.446Z,27.23
2019-03-28T22:21:39.549Z,25.53
2019-03-28T22:24:09.617Z,27.30
2019-03-28T22:26:39.767Z,26.33
2019-03-28T22:29:09.841Z,28.97
2019-03-28T22:31:39.919Z,27.60
2019-03-28T22:34:10.952Z,28.30
2019-03-28T22:36:57.064Z,29.93
2019-03-28T22:39:24.728Z,27.93
2019-03-28T22:41:54.788Z,29.67
2019-03-28T22:44:25.228Z,29.23
2019-03-28T22:46:55.341Z,28.73
2019-03-28T22:49:25.448Z,28.47
2019-03-28T22:51:55.707Z,28.43
2019-03-28T22:54:25.847Z,28.50
2019-03-28T22:56:55.907Z,27.73
2019-03-28T22:59:26.915Z,27.47
2019-03-28T23:01:57.236Z,27.03
2019-03-28T23:04:27.541Z,27.83
2019-03-28T23:07:10.413Z,26.40
2019-03-28T23:09:29.585Z,26.03
2019-03-28T23:11:59.862Z,25.93
2019-03-28T23:14:29.976Z,26.67
2019-03-28T23:17:00.055Z,25.90
2019-03-28T23:19:30.224Z,27.80
2019-03-28T23:22:00.345Z,27.37
2019-03-28T23:24:30.423Z,27.27
2019-03-28T23:27:00.992Z,28.33
2019-03-28T23:29:31.311Z,27.20
2019-03-28T23:32:01.387Z,28.63
2019-03-28T23:34:31.475Z,29.87
2019-03-28T23:37:01.630Z,29.80
2019-03-28T23:39:31.659Z,30.00
2019-03-28T23:42:01.929Z,29.53
2019-03-28T23:44:33.465Z,29.57
2019-03-28T23:47:03.878Z,28.10
2019-03-28T23:49:34.284Z,31.30
2019-03-28T23:52:04.331Z,29.10
2019-03-28T23:54:34.474Z,28.77
2019-03-28T23:57:04.590Z,29.17
2019-03-28T23:59:34.914Z,28.60
